sensor_id;sensor_type;location;lat;lon;timestamp;P1;durP1;ratioP1;P2;durP2;ratioP2
12194;SDS011;27023;42.680;23.132;2023-01-01T00:01:19;22.20;;;21.07;;
12194;SDS011;27023;42.680;23.132;2023-01-01T00:03:47;20.53;;;19.63;;
12194;SDS011;27023;42.680;23.132;2023-01-01T00:06:16;20.63;;;19.63;;
12194;SDS011;27023;42.680;23.132;2023-01-01T00:08:43;20.10;;;19.13;;
12194;SDS011;27023;42.680;23.132;2023-01-01T00:11:10;21.30;;;20.30;;
12194;SDS011;27023;42.680;23.132;2023-01-01T00:13:36;18.97;;;17.97;;
12194;SDS011;27023;42.680;23.132;2023-01-01T00:16:05;16.33;;;15.63;;
12194;SDS011;27023;42.680;23.132;2023-01-01T00:18:33;16.97;;;16.17;;
12194;SDS011;27023;42.680;23.132;2023-01-01T00:21:00;17.67;;;16.87;;
12194;SDS011;27023;42.680;23.132;2023-01-01T00:23:29;13.90;;;13.30;;
12194;SDS011;27023;42.680;23.132;2023-01-01T00:25:56;11.60;;;11.10;;
12194;SDS011;27023;42.680;23.132;2023-01-01T00:28:24;13.53;;;13.00;;
12194;SDS011;27023;42.680;23.132;2023-01-01T00:30:51;13.03;;;12.40;;
12194;SDS011;27023;42.680;23.132;2023-01-01T00:33:17;12.53;;;12.03;;
12194;SDS011;27023;42.680;23.132;2023-01-01T00:35:44;11.97;;;11.43;;
12194;SDS011;27023;42.680;23.132;2023-01-01T00:38:11;12.30;;;11.73;;
12194;SDS011;27023;42.680;23.132;2023-01-01T00:40:39;12.83;;;12.10;;
12194;SDS011;27023;42.680;23.132;2023-01-01T00:43:06;11.63;;;11.13;;
12194;SDS011;27023;42.680;23.132;2023-01-01T00:45:33;12.33;;;11.73;;
12194;SDS011;27023;42.680;23.132;2023-01-01T00:47:59;13.43;;;12.83;;
12194;SDS011;27023;42.680;23.132;2023-01-01T00:50:26;12.77;;;12.27;;
12194;SDS011;27023;42.680;23.132;2023-01-01T00:52:53;11.33;;;10.83;;
12194;SDS011;27023;42.680;23.132;2023-01-01T00:55:19;10.50;;;10.13;;
12194;SDS011;27023;42.680;23.132;2023-01-01T00:57:47;10.70;;;10.30;;
12194;SDS011;27023;42.680;23.132;2023-01-01T01:00:14;12.47;;;12.03;;
12194;SDS011;27023;42.680;23.132;2023-01-01T01:02:42;11.03;;;10.67;;
12194;SDS011;27023;42.680;23.132;2023-01-01T01:05:08;9.97;;;9.70;;
12194;SDS011;27023;42.680;23.132;2023-01-01T01:07:35;12.43;;;11.93;;
12194;SDS011;27023;42.680;23.132;2023-01-01T01:10:04;21.47;;;20.57;;
12194;SDS011;27023;42.680;23.132;2023-01-01T01:12:32;13.90;;;13.37;;
12194;SDS011;27023;42.680;23.132;2023-01-01T01:15:01;13.33;;;12.83;;
12194;SDS011;27023;42.680;23.132;2023-01-01T01:17:28;11.17;;;10.77;;
12194;SDS011;27023;42.680;23.132;2023-01-01T01:19:55;12.73;;;12.23;;
12194;SDS011;27023;42.680;23.132;2023-01-01T01:22:22;13.47;;;12.97;;
12194;SDS011;27023;42.680;23.132;2023-01-01T01:24:48;13.97;;;13.37;;
12194;SDS011;27023;42.680;23.132;2023-01-01T01:27:16;16.93;;;16.03;;
12194;SDS011;27023;42.680;23.132;2023-01-01T01:29:42;19.77;;;18.87;;
12194;SDS011;27023;42.680;23.132;2023-01-01T01:32:11;12.87;;;12.27;;
12194;SDS011;27023;42.680;23.132;2023-01-01T01:34:38;15.10;;;14.07;;
12194;SDS011;27023;42.680;23.132;2023-01-01T01:37:04;13.07;;;12.50;;
12194;SDS011;27023;42.680;23.132;2023-01-01T01:39:31;14.33;;;13.63;;
12194;SDS011;27023;42.680;23.132;2023-01-01T01:41:58;14.47;;;13.77;;
12194;SDS011;27023;42.680;23.132;2023-01-01T01:47:19;30.13;;;28.63;;
12194;SDS011;27023;42.680;23.132;2023-01-01T01:49:50;27.20;;;25.90;;
12194;SDS011;27023;42.680;23.132;2023-01-01T01:52:21;12.10;;;11.70;;
12194;SDS011;27023;42.680;23.132;2023-01-01T01:54:48;14.50;;;13.90;;
12194;SDS011;27023;42.680;23.132;2023-01-01T01:57:15;13.17;;;12.60;;
12194;SDS011;27023;42.680;23.132;2023-01-01T01:59:43;11.77;;;11.33;;
12194;SDS011;27023;42.680;23.132;2023-01-01T02:02:15;13.83;;;13.23;;
12194;SDS011;27023;42.680;23.132;2023-01-01T02:04:48;32.70;;;30.97;;
12194;SDS011;27023;42.680;23.132;2023-01-01T02:07:15;15.53;;;14.90;;
12194;SDS011;27023;42.680;23.132;2023-01-01T02:09:43;15.63;;;14.93;;
12194;SDS011;27023;42.680;23.132;2023-01-01T02:12:10;14.70;;;14.07;;
12194;SDS011;27023;42.680;23.132;2023-01-01T02:14:37;22.90;;;21.80;;
12194;SDS011;27023;42.680;23.132;2023-01-01T02:17:06;14.93;;;14.23;;
12194;SDS011;27023;42.680;23.132;2023-01-01T02:19:39;14.07;;;13.43;;
12194;SDS011;27023;42.680;23.132;2023-01-01T02:22:13;22.73;;;21.77;;
12194;SDS011;27023;42.680;23.132;2023-01-01T02:24:47;14.87;;;14.10;;
12194;SDS011;27023;42.680;23.132;2023-01-01T02:27:19;15.40;;;14.70;;
12194;SDS011;27023;42.680;23.132;2023-01-01T02:29:56;14.10;;;13.53;;
12194;SDS011;27023;42.680;23.132;2023-01-01T02:32:28;34.27;;;32.50;;
12194;SDS011;27023;42.680;23.132;2023-01-01T02:35:00;40.53;;;38.40;;
12194;SDS011;27023;42.680;23.132;2023-01-01T02:37:51;31.50;;;29.70;;
12194;SDS011;27023;42.680;23.132;2023-01-01T02:40:22;38.37;;;36.43;;
12194;SDS011;27023;42.680;23.132;2023-01-01T02:42:50;27.93;;;26.57;;
12194;SDS011;27023;42.680;23.132;2023-01-01T02:45:20;15.73;;;15.00;;
12194;SDS011;27023;42.680;23.132;2023-01-01T02:47:47;19.20;;;18.27;;
12194;SDS011;27023;42.680;23.132;2023-01-01T02:50:14;13.97;;;13.30;;
12194;SDS011;27023;42.680;23.132;2023-01-01T02:52:49;13.27;;;12.57;;
12194;SDS011;27023;42.680;23.132;2023-01-01T02:55:31;14.50;;;13.80;;
12194;SDS011;27023;42.680;23.132;2023-01-01T02:58:07;15.43;;;14.77;;
12194;SDS011;27023;42.680;23.132;2023-01-01T03:01:02;16.00;;;15.17;;
12194;SDS011;27023;42.680;23.132;2023-01-01T03:03:35;14.93;;;14.17;;
12194;SDS011;27023;42.680;23.132;2023-01-01T03:06:06;15.17;;;14.60;;
12194;SDS011;27023;42.680;23.132;2023-01-01T03:08:51;13.93;;;13.30;;
12194;SDS011;27023;42.680;23.132;2023-01-01T03:11:23;14.87;;;14.13;;
12194;SDS011;27023;42.680;23.132;2023-01-01T03:13:58;13.83;;;13.23;;
12194;SDS011;27023;42.680;23.132;2023-01-01T03:16:33;12.53;;;12.03;;
12194;SDS011;27023;42.680;23.132;2023-01-01T03:19:04;19.30;;;18.37;;
12194;SDS011;27023;42.680;23.132;2023-01-01T03:21:38;27.47;;;26.23;;
12194;SDS011;27023;42.680;23.132;2023-01-01T03:24:08;23.50;;;22.30;;
12194;SDS011;27023;42.680;23.132;2023-01-01T03:26:39;23.60;;;22.37;;
12194;SDS011;27023;42.680;23.132;2023-01-01T03:29:07;23.63;;;22.43;;
12194;SDS011;27023;42.680;23.132;2023-01-01T03:31:38;25.30;;;24.10;;
12194;SDS011;27023;42.680;23.132;2023-01-01T03:34:10;26.23;;;24.83;;
12194;SDS011;27023;42.680;23.132;2023-01-01T03:36:40;23.70;;;22.53;;
12194;SDS011;27023;42.680;23.132;2023-01-01T03:39:12;12.97;;;12.53;;
12194;SDS011;27023;42.680;23.132;2023-01-01T03:41:45;19.23;;;18.33;;
12194;SDS011;27023;42.680;23.132;2023-01-01T03:44:16;25.10;;;23.90;;
12194;SDS011;27023;42.680;23.132;2023-01-01T03:46:50;22.93;;;21.83;;
12194;SDS011;27023;42.680;23.132;2023-01-01T03:49:17;20.47;;;19.47;;
12194;SDS011;27023;42.680;23.132;2023-01-01T03:51:53;21.93;;;21.00;;
12194;SDS011;27023;42.680;23.132;2023-01-01T03:54:27;12.23;;;11.73;;
12194;SDS011;27023;42.680;23.132;2023-01-01T03:57:03;11.20;;;10.77;;
12194;SDS011;27023;42.680;23.132;2023-01-01T03:59:38;10.67;;;10.30;;
12194;SDS011;27023;42.680;23.132;2023-01-01T04:02:10;23.83;;;22.63;;
12194;SDS011;27023;42.680;23.132;2023-01-01T04:04:40;12.20;;;11.57;;
12194;SDS011;27023;42.680;23.132;2023-01-01T04:07:08;19.90;;;18.90;;
12194;SDS011;27023;42.680;23.132;2023-01-01T04:09:35;18.87;;;17.97;;
12194;SDS011;27023;42.680;23.132;2023-01-01T04:12:03;17.23;;;16.43;;
12194;SDS011;27023;42.680;23.132;2023-01-01T04:14:32;18.57;;;17.67;;
12194;SDS011;27023;42.680;23.132;2023-01-01T04:17:00;16.93;;;16.10;;
12194;SDS011;27023;42.680;23.132;2023-01-01T04:19:30;13.87;;;13.20;;
12194;SDS011;27023;42.680;23.132;2023-01-01T04:21:57;12.83;;;12.23;;
12194;SDS011;27023;42.680;23.132;2023-01-01T04:24:24;11.87;;;11.47;;
12194;SDS011;27023;42.680;23.132;2023-01-01T04:26:51;13.07;;;12.43;;
12194;SDS011;27023;42.680;23.132;2023-01-01T04:29:19;15.27;;;14.33;;
12194;SDS011;27023;42.680;23.132;2023-01-01T04:31:46;18.60;;;17.73;;
12194;SDS011;27023;42.680;23.132;2023-01-01T04:34:13;19.83;;;18.83;;
12194;SDS011;27023;42.680;23.132;2023-01-01T04:36:41;18.97;;;18.03;;
12194;SDS011;27023;42.680;23.132;2023-01-01T04:39:08;13.43;;;12.90;;
12194;SDS011;27023;42.680;23.132;2023-01-01T04:41:35;15.37;;;14.70;;
12194;SDS011;27023;42.680;23.132;2023-01-01T04:44:02;17.27;;;16.40;;
12194;SDS011;27023;42.680;23.132;2023-01-01T04:46:29;19.13;;;18.23;;
12194;SDS011;27023;42.680;23.132;2023-01-01T04:48:55;21.27;;;20.23;;
12194;SDS011;27023;42.680;23.132;2023-01-01T04:51:22;21.87;;;20.83;;
12194;SDS011;27023;42.680;23.132;2023-01-01T04:53:50;22.90;;;21.73;;
12194;SDS011;27023;42.680;23.132;2023-01-01T04:56:17;25.40;;;24.20;;
12194;SDS011;27023;42.680;23.132;2023-01-01T04:58:46;28.07;;;26.63;;
12194;SDS011;27023;42.680;23.132;2023-01-01T05:01:13;26.00;;;24.67;;
12194;SDS011;27023;42.680;23.132;2023-01-01T05:03:42;23.57;;;22.33;;
12194;SDS011;27023;42.680;23.132;2023-01-01T05:06:10;23.33;;;22.07;;
12194;SDS011;27023;42.680;23.132;2023-01-01T05:08:38;21.20;;;20.20;;
12194;SDS011;27023;42.680;23.132;2023-01-01T05:11:08;14.33;;;13.63;;
12194;SDS011;27023;42.680;23.132;2023-01-01T05:13:36;18.63;;;17.73;;
12194;SDS011;27023;42.680;23.132;2023-01-01T05:16:06;24.20;;;22.93;;
12194;SDS011;27023;42.680;23.132;2023-01-01T05:18:34;22.70;;;21.43;;
12194;SDS011;27023;42.680;23.132;2023-01-01T05:21:02;12.07;;;11.50;;
12194;SDS011;27023;42.680;23.132;2023-01-01T05:23:30;15.37;;;14.67;;
12194;SDS011;27023;42.680;23.132;2023-01-01T05:25:57;23.67;;;22.40;;
12194;SDS011;27023;42.680;23.132;2023-01-01T05:28:25;19.97;;;19.07;;
12194;SDS011;27023;42.680;23.132;2023-01-01T05:30:52;14.13;;;13.53;;
12194;SDS011;27023;42.680;23.132;2023-01-01T05:33:19;17.43;;;16.63;;
12194;SDS011;27023;42.680;23.132;2023-01-01T05:35:51;15.13;;;14.43;;
12194;SDS011;27023;42.680;23.132;2023-01-01T05:38:19;15.80;;;15.10;;
12194;SDS011;27023;42.680;23.132;2023-01-01T05:40:46;13.63;;;12.93;;
12194;SDS011;27023;42.680;23.132;2023-01-01T05:43:12;14.13;;;13.43;;
12194;SDS011;27023;42.680;23.132;2023-01-01T05:45:42;20.93;;;19.93;;
12194;SDS011;27023;42.680;23.132;2023-01-01T05:48:10;15.33;;;14.63;;
12194;SDS011;27023;42.680;23.132;2023-01-01T05:50:36;11.90;;;11.40;;
12194;SDS011;27023;42.680;23.132;2023-01-01T05:53:03;11.97;;;11.47;;
12194;SDS011;27023;42.680;23.132;2023-01-01T05:55:30;19.47;;;18.53;;
12194;SDS011;27023;42.680;23.132;2023-01-01T05:57:56;11.67;;;11.13;;
12194;SDS011;27023;42.680;23.132;2023-01-01T06:00:23;15.90;;;15.13;;
12194;SDS011;27023;42.680;23.132;2023-01-01T06:02:51;12.93;;;12.37;;
12194;SDS011;27023;42.680;23.132;2023-01-01T06:05:18;12.67;;;12.00;;
12194;SDS011;27023;42.680;23.132;2023-01-01T06:07:45;15.73;;;15.03;;
12194;SDS011;27023;42.680;23.132;2023-01-01T06:10:12;22.93;;;21.77;;
12194;SDS011;27023;42.680;23.132;2023-01-01T06:12:38;15.57;;;14.67;;
12194;SDS011;27023;42.680;23.132;2023-01-01T06:15:06;18.43;;;17.53;;
12194;SDS011;27023;42.680;23.132;2023-01-01T06:17:33;16.57;;;15.87;;
12194;SDS011;27023;42.680;23.132;2023-01-01T06:20:01;20.43;;;19.37;;
12194;SDS011;27023;42.680;23.132;2023-01-01T06:22:28;24.40;;;23.17;;
12194;SDS011;27023;42.680;23.132;2023-01-01T06:24:55;25.10;;;23.80;;
12194;SDS011;27023;42.680;23.132;2023-01-01T06:27:22;24.43;;;23.13;;
12194;SDS011;27023;42.680;23.132;2023-01-01T06:29:48;22.50;;;21.37;;
12194;SDS011;27023;42.680;23.132;2023-01-01T06:32:15;17.87;;;17.00;;
12194;SDS011;27023;42.680;23.132;2023-01-01T06:34:42;17.93;;;17.03;;
12194;SDS011;27023;42.680;23.132;2023-01-01T06:37:10;19.60;;;18.63;;
12194;SDS011;27023;42.680;23.132;2023-01-01T06:39:36;24.43;;;23.20;;
12194;SDS011;27023;42.680;23.132;2023-01-01T06:42:03;25.83;;;24.57;;
12194;SDS011;27023;42.680;23.132;2023-01-01T06:44:30;24.37;;;23.20;;
12194;SDS011;27023;42.680;23.132;2023-01-01T06:46:56;14.97;;;14.43;;
12194;SDS011;27023;42.680;23.132;2023-01-01T06:49:23;19.17;;;18.33;;
12194;SDS011;27023;42.680;23.132;2023-01-01T06:51:50;22.50;;;20.50;;
12194;SDS011;27023;42.680;23.132;2023-01-01T06:54:18;22.13;;;20.87;;
12194;SDS011;27023;42.680;23.132;2023-01-01T06:56:44;18.60;;;17.60;;
12194;SDS011;27023;42.680;23.132;2023-01-01T06:59:11;18.43;;;17.57;;
12194;SDS011;27023;42.680;23.132;2023-01-01T07:01:38;17.60;;;16.80;;
12194;SDS011;27023;42.680;23.132;2023-01-01T07:04:05;16.33;;;15.53;;
12194;SDS011;27023;42.680;23.132;2023-01-01T07:06:33;19.70;;;18.70;;
12194;SDS011;27023;42.680;23.132;2023-01-01T07:09:01;21.00;;;19.77;;
12194;SDS011;27023;42.680;23.132;2023-01-01T07:11:30;19.67;;;18.53;;
12194;SDS011;27023;42.680;23.132;2023-01-01T07:13:57;20.93;;;19.77;;
12194;SDS011;27023;42.680;23.132;2023-01-01T07:16:24;19.23;;;18.23;;
12194;SDS011;27023;42.680;23.132;2023-01-01T07:18:51;18.77;;;17.80;;
12194;SDS011;27023;42.680;23.132;2023-01-01T07:21:22;18.83;;;17.90;;
12194;SDS011;27023;42.680;23.132;2023-01-01T07:23:53;19.17;;;18.33;;
12194;SDS011;27023;42.680;23.132;2023-01-01T07:26:21;17.67;;;16.93;;
12194;SDS011;27023;42.680;23.132;2023-01-01T07:28:49;16.90;;;16.20;;
12194;SDS011;27023;42.680;23.132;2023-01-01T07:31:16;19.07;;;18.23;;
12194;SDS011;27023;42.680;23.132;2023-01-01T07:33:51;16.10;;;15.43;;
12194;SDS011;27023;42.680;23.132;2023-01-01T07:36:17;17.43;;;16.73;;
12194;SDS011;27023;42.680;23.132;2023-01-01T07:38:44;25.40;;;24.20;;
12194;SDS011;27023;42.680;23.132;2023-01-01T07:41:11;34.67;;;32.80;;
12194;SDS011;27023;42.680;23.132;2023-01-01T07:43:37;28.57;;;27.20;;
12194;SDS011;27023;42.680;23.132;2023-01-01T07:46:05;21.50;;;20.57;;
12194;SDS011;27023;42.680;23.132;2023-01-01T07:48:32;19.83;;;18.87;;
12194;SDS011;27023;42.680;23.132;2023-01-01T07:50:59;21.27;;;20.20;;
12194;SDS011;27023;42.680;23.132;2023-01-01T07:53:25;14.20;;;13.53;;
12194;SDS011;27023;42.680;23.132;2023-01-01T07:55:52;15.87;;;15.27;;
12194;SDS011;27023;42.680;23.132;2023-01-01T07:58:18;18.47;;;17.63;;
12194;SDS011;27023;42.680;23.132;2023-01-01T08:00:47;18.17;;;17.47;;
12194;SDS011;27023;42.680;23.132;2023-01-01T08:03:15;17.57;;;16.77;;
12194;SDS011;27023;42.680;23.132;2023-01-01T08:05:42;18.90;;;18.17;;
12194;SDS011;27023;42.680;23.132;2023-01-01T08:08:09;17.33;;;16.63;;
12194;SDS011;27023;42.680;23.132;2023-01-01T08:10:36;17.30;;;16.63;;
12194;SDS011;27023;42.680;23.132;2023-01-01T08:13:03;17.70;;;16.87;;
12194;SDS011;27023;42.680;23.132;2023-01-01T08:15:32;15.10;;;14.53;;
12194;SDS011;27023;42.680;23.132;2023-01-01T08:17:59;16.77;;;16.00;;
12194;SDS011;27023;42.680;23.132;2023-01-01T08:20:29;17.20;;;16.53;;
12194;SDS011;27023;42.680;23.132;2023-01-01T08:22:57;19.27;;;18.47;;
12194;SDS011;27023;42.680;23.132;2023-01-01T08:25:23;16.90;;;16.17;;
12194;SDS011;27023;42.680;23.132;2023-01-01T08:27:50;15.73;;;15.13;;
12194;SDS011;27023;42.680;23.132;2023-01-01T08:30:16;15.87;;;15.17;;
12194;SDS011;27023;42.680;23.132;2023-01-01T08:32:43;15.50;;;14.80;;
12194;SDS011;27023;42.680;23.132;2023-01-01T08:35:10;12.10;;;11.60;;
12194;SDS011;27023;42.680;23.132;2023-01-01T08:37:38;13.57;;;12.97;;
12194;SDS011;27023;42.680;23.132;2023-01-01T08:40:05;12.97;;;12.47;;
12194;SDS011;27023;42.680;23.132;2023-01-01T08:42:33;12.43;;;11.93;;
12194;SDS011;27023;42.680;23.132;2023-01-01T08:44:59;13.07;;;12.53;;
12194;SDS011;27023;42.680;23.132;2023-01-01T08:47:26;12.77;;;12.27;;
12194;SDS011;27023;42.680;23.132;2023-01-01T08:49:53;11.97;;;11.57;;
12194;SDS011;27023;42.680;23.132;2023-01-01T08:52:20;12.70;;;12.20;;
12194;SDS011;27023;42.680;23.132;2023-01-01T08:54:48;14.23;;;13.57;;
12194;SDS011;27023;42.680;23.132;2023-01-01T08:57:14;15.13;;;13.87;;
12194;SDS011;27023;42.680;23.132;2023-01-01T08:59:41;12.87;;;12.37;;
12194;SDS011;27023;42.680;23.132;2023-01-01T09:02:08;12.37;;;11.87;;
12194;SDS011;27023;42.680;23.132;2023-01-01T09:04:35;14.83;;;14.17;;
12194;SDS011;27023;42.680;23.132;2023-01-01T09:07:02;12.97;;;12.33;;
12194;SDS011;27023;42.680;23.132;2023-01-01T09:09:29;13.00;;;12.50;;
12194;SDS011;27023;42.680;23.132;2023-01-01T09:11:57;11.83;;;11.40;;
12194;SDS011;27023;42.680;23.132;2023-01-01T09:14:30;10.07;;;9.77;;
12194;SDS011;27023;42.680;23.132;2023-01-01T09:16:57;11.13;;;10.57;;
12194;SDS011;27023;42.680;23.132;2023-01-01T09:19:24;11.40;;;10.90;;
12194;SDS011;27023;42.680;23.132;2023-01-01T09:21:51;11.73;;;11.20;;
12194;SDS011;27023;42.680;23.132;2023-01-01T09:24:18;12.33;;;11.83;;
12194;SDS011;27023;42.680;23.132;2023-01-01T09:26:45;13.87;;;13.33;;
12194;SDS011;27023;42.680;23.132;2023-01-01T09:29:13;9.87;;;9.47;;
12194;SDS011;27023;42.680;23.132;2023-01-01T09:31:42;13.10;;;12.33;;
12194;SDS011;27023;42.680;23.132;2023-01-01T09:34:09;9.57;;;9.27;;
12194;SDS011;27023;42.680;23.132;2023-01-01T09:36:36;8.60;;;8.30;;
12194;SDS011;27023;42.680;23.132;2023-01-01T09:39:03;9.93;;;9.30;;
12194;SDS011;27023;42.680;23.132;2023-01-01T09:44:44;7.60;;;7.20;;
12194;SDS011;27023;42.680;23.132;2023-01-01T09:47:28;8.23;;;7.93;;
12194;SDS011;27023;42.680;23.132;2023-01-01T09:49:59;8.47;;;8.07;;
12194;SDS011;27023;42.680;23.132;2023-01-01T09:52:34;9.00;;;8.50;;
12194;SDS011;27023;42.680;23.132;2023-01-01T09:55:08;7.53;;;7.33;;
12194;SDS011;27023;42.680;23.132;2023-01-01T09:57:40;7.07;;;6.47;;
12194;SDS011;27023;42.680;23.132;2023-01-01T10:00:12;8.03;;;7.67;;
12194;SDS011;27023;42.680;23.132;2023-01-01T10:02:43;8.70;;;8.43;;
12194;SDS011;27023;42.680;23.132;2023-01-01T10:05:25;6.47;;;6.17;;
12194;SDS011;27023;42.680;23.132;2023-01-01T10:07:59;8.40;;;6.00;;
12194;SDS011;27023;42.680;23.132;2023-01-01T10:10:34;9.90;;;9.37;;
12194;SDS011;27023;42.680;23.132;2023-01-01T10:13:06;4.73;;;4.43;;
12194;SDS011;27023;42.680;23.132;2023-01-01T10:15:48;4.03;;;3.87;;
12194;SDS011;27023;42.680;23.132;2023-01-01T10:18:20;4.63;;;4.50;;
12194;SDS011;27023;42.680;23.132;2023-01-01T10:20:53;4.63;;;4.40;;
12194;SDS011;27023;42.680;23.132;2023-01-01T10:23:25;3.57;;;3.43;;
12194;SDS011;27023;42.680;23.132;2023-01-01T10:25:55;4.10;;;3.80;;
12194;SDS011;27023;42.680;23.132;2023-01-01T10:28:24;4.40;;;3.90;;
12194;SDS011;27023;42.680;23.132;2023-01-01T10:30:59;4.03;;;3.83;;
12194;SDS011;27023;42.680;23.132;2023-01-01T10:33:39;5.77;;;5.40;;
12194;SDS011;27023;42.680;23.132;2023-01-01T10:36:06;5.30;;;4.77;;
12194;SDS011;27023;42.680;23.132;2023-01-01T10:38:36;7.60;;;7.20;;
12194;SDS011;27023;42.680;23.132;2023-01-01T10:41:05;4.97;;;4.67;;
12194;SDS011;27023;42.680;23.132;2023-01-01T10:43:34;6.70;;;6.40;;
12194;SDS011;27023;42.680;23.132;2023-01-01T10:46:03;6.03;;;5.37;;
12194;SDS011;27023;42.680;23.132;2023-01-01T10:48:31;6.83;;;6.53;;
12194;SDS011;27023;42.680;23.132;2023-01-01T10:51:00;7.80;;;6.03;;
12194;SDS011;27023;42.680;23.132;2023-01-01T10:53:29;5.30;;;4.93;;
12194;SDS011;27023;42.680;23.132;2023-01-01T10:55:58;5.43;;;5.10;;
12194;SDS011;27023;42.680;23.132;2023-01-01T10:58:33;4.67;;;4.47;;
12194;SDS011;27023;42.680;23.132;2023-01-01T11:01:03;4.60;;;4.17;;
12194;SDS011;27023;42.680;23.132;2023-01-01T11:03:31;8.00;;;7.30;;
12194;SDS011;27023;42.680;23.132;2023-01-01T11:08:46;4.23;;;4.03;;
12194;SDS011;27023;42.680;23.132;2023-01-01T11:11:18;4.17;;;3.97;;
12194;SDS011;27023;42.680;23.132;2023-01-01T11:13:48;4.17;;;3.87;;
12194;SDS011;27023;42.680;23.132;2023-01-01T11:16:17;4.40;;;4.23;;
12194;SDS011;27023;42.680;23.132;2023-01-01T11:18:45;13.90;;;5.37;;
12194;SDS011;27023;42.680;23.132;2023-01-01T11:21:18;7.10;;;5.27;;
12194;SDS011;27023;42.680;23.132;2023-01-01T11:23:47;4.33;;;4.07;;
12194;SDS011;27023;42.680;23.132;2023-01-01T11:26:19;4.00;;;3.90;;
12194;SDS011;27023;42.680;23.132;2023-01-01T11:29:00;4.93;;;4.67;;
12194;SDS011;27023;42.680;23.132;2023-01-01T11:31:32;4.10;;;4.00;;
12194;SDS011;27023;42.680;23.132;2023-01-01T11:34:02;3.23;;;3.23;;
12194;SDS011;27023;42.680;23.132;2023-01-01T11:36:31;3.40;;;3.30;;
12194;SDS011;27023;42.680;23.132;2023-01-01T11:39:04;3.03;;;3.03;;
12194;SDS011;27023;42.680;23.132;2023-01-01T11:41:41;3.90;;;3.70;;
12194;SDS011;27023;42.680;23.132;2023-01-01T11:44:10;3.43;;;3.33;;
12194;SDS011;27023;42.680;23.132;2023-01-01T11:46:43;5.03;;;4.27;;
12194;SDS011;27023;42.680;23.132;2023-01-01T11:49:12;3.13;;;2.93;;
12194;SDS011;27023;42.680;23.132;2023-01-01T11:51:40;2.93;;;2.87;;
12194;SDS011;27023;42.680;23.132;2023-01-01T11:54:08;3.17;;;3.00;;
12194;SDS011;27023;42.680;23.132;2023-01-01T11:56:37;4.70;;;4.40;;
12194;SDS011;27023;42.680;23.132;2023-01-01T11:59:08;4.53;;;4.23;;
12194;SDS011;27023;42.680;23.132;2023-01-01T12:01:42;4.23;;;3.93;;
12194;SDS011;27023;42.680;23.132;2023-01-01T12:04:15;4.37;;;4.27;;
12194;SDS011;27023;42.680;23.132;2023-01-01T12:06:46;4.47;;;4.17;;
12194;SDS011;27023;42.680;23.132;2023-01-01T12:09:19;2.97;;;2.77;;
12194;SDS011;27023;42.680;23.132;2023-01-01T12:11:50;3.83;;;3.73;;
12194;SDS011;27023;42.680;23.132;2023-01-01T12:14:24;4.63;;;4.33;;
12194;SDS011;27023;42.680;23.132;2023-01-01T12:17:00;4.57;;;4.23;;
12194;SDS011;27023;42.680;23.132;2023-01-01T12:19:31;5.00;;;4.63;;
12194;SDS011;27023;42.680;23.132;2023-01-01T12:22:03;5.70;;;5.40;;
12194;SDS011;27023;42.680;23.132;2023-01-01T12:24:39;8.90;;;7.60;;
12194;SDS011;27023;42.680;23.132;2023-01-01T12:27:13;5.77;;;5.37;;
12194;SDS011;27023;42.680;23.132;2023-01-01T12:32:49;3.53;;;3.43;;
12194;SDS011;27023;42.680;23.132;2023-01-01T12:35:29;8.37;;;5.00;;
12194;SDS011;27023;42.680;23.132;2023-01-01T12:38:12;7.10;;;6.60;;
12194;SDS011;27023;42.680;23.132;2023-01-01T12:40:49;6.03;;;5.73;;
12194;SDS011;27023;42.680;23.132;2023-01-01T12:43:29;6.23;;;5.93;;
12194;SDS011;27023;42.680;23.132;2023-01-01T12:48:59;6.93;;;5.23;;
12194;SDS011;27023;42.680;23.132;2023-01-01T12:51:43;8.40;;;7.67;;
12194;SDS011;27023;42.680;23.132;2023-01-01T12:54:26;10.13;;;7.20;;
12194;SDS011;27023;42.680;23.132;2023-01-01T12:57:05;6.63;;;5.43;;
12194;SDS011;27023;42.680;23.132;2023-01-01T12:59:38;6.07;;;5.50;;
12194;SDS011;27023;42.680;23.132;2023-01-01T13:02:10;16.13;;;6.97;;
12194;SDS011;27023;42.680;23.132;2023-01-01T13:04:43;19.23;;;8.70;;
12194;SDS011;27023;42.680;23.132;2023-01-01T13:07:12;8.97;;;8.57;;
12194;SDS011;27023;42.680;23.132;2023-01-01T13:09:40;13.43;;;12.93;;
12194;SDS011;27023;42.680;23.132;2023-01-01T13:12:13;33.03;;;31.37;;
12194;SDS011;27023;42.680;23.132;2023-01-01T13:14:43;23.87;;;22.57;;
12194;SDS011;27023;42.680;23.132;2023-01-01T13:17:16;19.73;;;18.90;;
12194;SDS011;27023;42.680;23.132;2023-01-01T13:19:46;28.77;;;27.17;;
12194;SDS011;27023;42.680;23.132;2023-01-01T13:25:16;39.53;;;37.57;;
12194;SDS011;27023;42.680;23.132;2023-01-01T13:30:46;18.13;;;17.43;;
12194;SDS011;27023;42.680;23.132;2023-01-01T13:33:18;16.50;;;15.80;;
12194;SDS011;27023;42.680;23.132;2023-01-01T13:38:56;40.10;;;38.10;;
12194;SDS011;27023;42.680;23.132;2023-01-01T13:41:38;36.37;;;34.60;;
12194;SDS011;27023;42.680;23.132;2023-01-01T13:44:17;35.53;;;33.77;;
12194;SDS011;27023;42.680;23.132;2023-01-01T13:46:55;17.17;;;16.30;;
12194;SDS011;27023;42.680;23.132;2023-01-01T13:49:36;12.80;;;12.30;;
12194;SDS011;27023;42.680;23.132;2023-01-01T13:52:22;15.93;;;15.30;;
12194;SDS011;27023;42.680;23.132;2023-01-01T13:55:35;22.37;;;21.37;;
12194;SDS011;27023;42.680;23.132;2023-01-01T14:01:31;23.70;;;22.60;;
12194;SDS011;27023;42.680;23.132;2023-01-01T14:04:16;24.97;;;23.87;;
12194;SDS011;27023;42.680;23.132;2023-01-01T14:06:54;24.03;;;22.83;;
12194;SDS011;27023;42.680;23.132;2023-01-01T14:09:23;22.50;;;21.40;;
12194;SDS011;27023;42.680;23.132;2023-01-01T14:11:51;20.97;;;20.13;;
12194;SDS011;27023;42.680;23.132;2023-01-01T14:14:21;18.27;;;17.47;;
12194;SDS011;27023;42.680;23.132;2023-01-01T14:16:51;26.23;;;25.03;;
12194;SDS011;27023;42.680;23.132;2023-01-01T14:19:21;30.70;;;29.20;;
12194;SDS011;27023;42.680;23.132;2023-01-01T14:21:48;31.57;;;30.07;;
12194;SDS011;27023;42.680;23.132;2023-01-01T14:24:17;33.20;;;31.53;;
12194;SDS011;27023;42.680;23.132;2023-01-01T14:26:46;36.17;;;34.40;;
12194;SDS011;27023;42.680;23.132;2023-01-01T14:29:17;38.50;;;36.53;;
12194;SDS011;27023;42.680;23.132;2023-01-01T14:31:47;42.80;;;40.73;;
12194;SDS011;27023;42.680;23.132;2023-01-01T14:34:25;45.87;;;43.63;;
12194;SDS011;27023;42.680;23.132;2023-01-01T14:36:54;40.33;;;38.30;;
12194;SDS011;27023;42.680;23.132;2023-01-01T14:39:25;32.20;;;30.63;;
12194;SDS011;27023;42.680;23.132;2023-01-01T14:41:53;37.00;;;35.20;;
12194;SDS011;27023;42.680;23.132;2023-01-01T14:44:26;36.33;;;34.47;;
12194;SDS011;27023;42.680;23.132;2023-01-01T14:46:58;38.83;;;36.93;;
12194;SDS011;27023;42.680;23.132;2023-01-01T14:49:26;48.00;;;45.63;;
12194;SDS011;27023;42.680;23.132;2023-01-01T14:51:56;53.53;;;50.90;;
12194;SDS011;27023;42.680;23.132;2023-01-01T14:54:29;30.97;;;29.43;;
12194;SDS011;27023;42.680;23.132;2023-01-01T14:57:00;30.17;;;28.77;;